Detroit Metro Wayne County, MI

6:13 PM EST on February 01, 2015 (GMT -0500)
Near I-94/275 | Change Station
CLOSE
Current Station
Personal Weather Station
Location: Romulus, MI
Elevation: 679 ft
Nearby Weather Stations

Elev 679 ft 42.22 °N, 83.40 °W | Updated 19 seconds ago

Snow
Snow Freezing Fog
20.4 °F
Feels Like 20 °F
N
0.7
Wind Variable Wind from NE
Gusts 1.2 mph

Today
High -- | Low -- °F
--% Chance of Precip.
Yesterday
High -- | Low -- °F
Precip. -- in
7:46 AM 5:47 PM
Waxing Gibbous, 96% visible
Pressure 29.83 in
Visibility 0.5 miles
Clouds
Windchill 20 °F
Dew Point 18 °F
Humidity 92%
Rainfall 0.00 in
Snow Depth Not available.
UV Not available.
Pollen .10 out of 12
Air Quality Not available.
Flu Activity Not available.
METAR KDTW 012253Z 03013G20KT 1/2SM SN FZFG VV009 M06/M08 A2980 RMK AO2 TWR VIS 3/4 SLP101 P0005 T10611083 RVRNO $

More Conditions Fewer Conditions

Pressure 29.83 in
Visibility 0.5 miles
Clouds
Windchill 20 °F
Dew Point 18 °F
Humidity 92%
Rainfall 0.00 in
Snow Depth Not available.
UV Not available.
Pollen .10 out of 12
Air Quality Not available.
Flu Activity Not available.
METAR KDTW 012253Z 03013G20KT 1/2SM SN FZFG VV009 M06/M08 A2980 RMK AO2 TWR VIS 3/4 SLP101 P0005 T10611083 RVRNO $

More Conditions Fewer Conditions

10-Day Weather Forecast

Almanac

Astronomy

Feb. 01, 2015 Rise Set
Actual Time
Civil Twilight
Nautical Twilight
Astronomical Twilight
Moon
Length of Visible Light
Length of Day
Tomorrow will be .
, % of the Moon is Illuminated

Today's Extremes

State Highs State Lows

Community

WunderPhotos

Upload Photos

1,792,603 photos uploaded!

WunderBlogs® & News

Nearby

Air Quality

  Air Quality AQ Index Pollutant
Not available.

Snow Depth

Station Depth Elevation

Earthquake Activity

City Distance Mag. Time & Date
Minimum magnitude displayed is 2.5.

Coastal Water Temperatures

Place Temperature

Nearby Weather Stations